Three Rivers, MA (01080)

4:20 AM EST on February 06, 2016 (GMT -0500)
Pathfinder School | | Change Station
CLOSE
Current Station
Personal Weather Station
Location: Three Rivers, MA
Elevation: 331 ft
Nearby Weather Stations

Elev 331 ft 42.19 °N, 72.35 °W | Updated 8 seconds ago

Mostly Cloudy
Mostly Cloudy
11.7 °F
Feels Like 12 °F
N
0.0
Wind Variable Wind from North
Gusts 0.0 mph

Today
High -- | Low -- °F
--% Chance of Precip.
Yesterday
High -- | Low -- °F
Precip. -- in
Pressure 30.35 in
Visibility 10.0 miles
Clouds Clear
Windchill 12 °F
Dew Point 10 °F
Humidity 91%
Rainfall 0.00 in
Snow Depth Not available.
6:57 AM 5:09 PM
Waning Crescent, 6% visible
METAR KCEF 060858Z AUTO 24001KT 10SM CLR M11/M13 A3032 RMK AO2 SLP277 T11101129 52018
Pressure 30.35 in
Visibility 10.0 miles
Clouds Clear
Windchill 12 °F
Dew Point 10 °F
Humidity 91%
Rainfall 0.00 in
Snow Depth Not available.
6:57 AM 5:09 PM
Waning Crescent, 6% visible
METAR KCEF 060858Z AUTO 24001KT 10SM CLR M11/M13 A3032 RMK AO2 SLP277 T11101129 52018

10-Day Weather Forecast

Almanac

Astronomy

Feb. 06, 2016 Rise Set
Actual Time
Civil Twilight
Nautical Twilight
Astronomical Twilight
Moon
Length of Visible Light
Length of Day
Tomorrow will be .
, % of the Moon is Illuminated

Today's Extremes

State Highs State Lows

Community

WunderPhotos

Upload Photos

1,890,933 photos uploaded!

WunderBlog® & News

Nearby

Air Quality

  Air Quality AQ Index Pollutant
Not available.

Snow Depth

Station Depth Elevation

Earthquake Activity

City Distance Mag. Time & Date
Minimum magnitude displayed is 2.5.

Coastal Water Temperatures

Place Temperature

Stations

Nearby Weather Stations

Station Location Temp. Windchill Dew Point Humidity Wind Precip. Elev Updated Type
                   

Watches & Warnings

Special Statement
Issued: 12:04 AM EST Feb. 6, 2016 – National Weather Service

... Patches of black ice possible overnight into tomorrow...

Temperatures are expected to drop rapidly overnight... into the
teens and low 20s. This will lead to rapid freezing of untreated
roadways and walkways... which could become slippery with black
ice.

Those traveling are urged to use caution and allow for extra time
as the ice may be difficult to see.



1204 am EST Sat Feb 6 2016

... Patches of black ice possible overnight into tomorrow...

Temperatures are expected to drop rapidly overnight... into the
teens and low 20s. This will lead to rapid freezing of untreated
roadways and walkways... which could become slippery with black
ice.

Those traveling are urged to use caution and allow for extra time
as the ice may be difficult to see.